San Diego Classic - Holiday Cup - Race 1 - Yuma AZ

Station: 150 Miles - A Race

Distance: 150 Miles

Release: 13-Nov-2017 07:15

Weather Release: Mostly Cloudy    Arrival: Partly Cloudy

Wind at Release: Calm     Wind at Arrival: 4 NW

Temp at Release: 68°    Temp at Arrival: 68°

Lofts: 121

Birds: 486

Clocked: 448

Good Luck to Everyone!
Drops Pos Breeder Pigeon Name Color Sex Ent Arrival Speed To Win Eligible RaceAvg Speed
1 Nemeth Family Loft - CA 9059-AU17-BON BB H 1 10:23:12.50 1402.701 00:00:00 Yes
2 Rickyracers - CA 0106-AU17-LAND BBWF H 1 10:23:14.00 1402.515 00:00:01 Yes
2 Anthony Cuba - CA 3175-AU17-HP BBWF H 1 10:23:14.00 1402.515 00:00:01 Yes
4 Desert Rose Lofts - NV 0257-AU17-DRL DCWF H 1 10:23:15.10 1402.378 00:00:03 Yes
5 Genesis Syndicate Loft - AZ 0434-AU17-SYNL BBWF H 1 10:23:15.60 1402.316 00:00:03 Yes
6 Mesopotamia Loft - MN 0340-AU17-MESO BB H 1 10:23:17.10 1402.130 00:00:05 Yes
7 Modud - CO 17177-AU17-PUEB BB H 1 10:23:17.60 1402.068 00:00:05 Yes
8 Genesis Syndicate Loft - AZ 0447-AU17-SYNL BC H 2 10:23:18.20 1401.993 00:00:06 Yes
8 Pairan Racing Loft - OH 0312-AU17-LFO BC H 1 10:23:18.20 1401.993 00:00:06 Yes
10 J & M Partridge Loft - CA 0800-AU17-PASO BBWF H 1 10:23:18.70 1401.931 00:00:06 Yes
11 Winnerscupusa.Com - OK 43716-AU17-ARPU BBWF H 1 10:23:20.80 1401.671 00:00:08 Yes
12 Milestone Loft - CA 1590-AU17-SD BB H 1 10:23:21.10 1401.633 00:00:09 Yes
13 F & D Lofts - AB 17114-AU17-FD BB H 1 10:23:21.50 1401.584 00:00:09 Yes
14 Genesis Syndicate Loft - AZ 0421-AU17-SYNL BB H 3 10:23:23.50 1401.336 00:00:11 Yes
15 The Association - CA 1790-AU17-WBO No Doubt's Lil Request BC C 1 10:23:23.60 1401.323 00:00:11 Yes
16 Jalisco - CA 1961-AU17-JALI BBSP H 1 10:23:23.90 1401.286 00:00:11 Yes
17 Rick Barker - CA 0047-AU17-VIP BBWF H 1 10:23:27.20 1400.877 00:00:15 Yes
18 Rick Barker - CA 0065-AU17-VIP BBWF H 2 10:23:30.30 1400.493 00:00:18 Yes
19 Bob Carney - CT 1007-IF17-LCC BB H 1 10:24:21.90 1394.133 00:01:09 Yes
20 Stephen Brothers - CA 0730-AU17-COM BB H 1 10:24:22.40 1394.072 00:01:10 Yes
21 Eduardo Torres - TX 14283-AU17-ARPU BC H 1 10:24:23.10 1393.986 00:01:11 Yes
22 Nemeth Family Loft - CA 9068-AU17-BON BB H 2 10:24:24.10 1393.863 00:01:12 Yes
23 Flying D Loft - TX 0160-AU17-FLYD BCSP H 1 10:24:24.70 1393.790 00:01:12 Yes
24 Team Phoenix - AZ 12381-AU17-ARPU BBWF H 1 10:24:26.50 1393.569 00:01:14 Yes
25 Mr. Dovely - OR 2713-AU17-FOYS BBWF H 1 10:24:27.60 1393.434 00:01:15 Lost
25 Van-Robins - CA 0755-AU17-OCF BC H 1 10:24:27.60 1393.434 00:01:15 Yes
27 A V A Lofts - CA 28307-AU17-JEDD BB H 1 10:24:28.20 1393.360 00:01:16 Yes
28 Modud - CO 17059-AU17-PUEB BC H 2 10:24:28.70 1393.299 00:01:16 Yes
29 U Cluj - NV 0501-AU17-OTC DC H 1 10:24:29.20 1393.238 00:01:17 Yes
30 Milestone Loft - CA 0156-AU17-SD BB H 2 10:24:29.70 1393.177 00:01:17 Yes
31 Arrowhead Loft - CA 0007-AU17-AH BB H 1 10:24:30.20 1393.115 00:01:18 Yes
32 Humberto Munoz - EM 65374-AU17-MEX BB H 1 10:24:31.30 1392.981 00:01:19 Yes
33 Doves Landing - CA 1100-AU17-SD BB H 1 10:24:31.60 1392.944 00:01:19 Yes
34 Genesis Syndicate Loft - AZ 0414-AU17-SYNL BC H 4 10:24:32.40 1392.846 00:01:20 Yes
35 Milestone Loft - CA 0140-AU17-SD BB H 3 10:24:32.50 1392.834 00:01:20 Lost
36 Los Banditos - CA 2467-AU17-LOSB BB H 1 10:24:33.10 1392.760 00:01:21 Lost
37 Humberto Munoz - EM 65382-MX17-MEX BB H 2 10:24:33.90 1392.662 00:01:21 Yes
38 Koepf & Mcknight - CA 21262-AU17-JEDD BB H 1 10:24:34.60 1392.576 00:01:22 Yes
39 Michael Groe - CA 8960-AU17-JEDD BB H 1 10:24:35.00 1392.527 00:01:23 Yes
40 Jalisco - CA 1927-AU17-JALI BC H 2 10:24:35.40 1392.479 00:01:23 Yes
41 Bird Love To Fly - CA 33082-AU17-JEDD BB H 1 10:24:35.80 1392.430 00:01:23 Yes
42 Kolvenbag & Son - PA 1180-IF17-KOLV BC H 1 10:24:36.40 1392.356 00:01:24 Yes
43 Missiles Castro - AZ 2415-AU17-MISS BB H 1 10:24:38.30 1392.124 00:01:26 Yes
44 John Karnofel - CA 0767-AU17-KFL BB H 1 10:24:39.70 1391.952 00:01:27 Yes
45 Sandstrom Brothers Loft - MN 0785-AU17-SBL BBPD H 1 10:24:40.00 1391.916 00:01:27 Yes
46 Cn-Tou Loft - TN 0062-AU17-TOUL BC H 1 10:24:41.20 1391.769 00:01:29 Yes
47 Haslem-Stevens - UT 7926-AU17-COR BB H 1 10:24:41.90 1391.683 00:01:29 Yes
48 Kily 77 - CA 6097-AU17-HP SLT H 1 10:24:42.60 1391.598 00:01:30 Yes
49 Duane Gragg - CA 0971-AU17-AUB BC H 1 10:24:42.70 1391.585 00:01:30 Yes
50 Hawaiian Express - CA 0186-AU17-HAWE BBSP H 1 10:24:43.50 1391.488 00:01:31 Yes
51 Tim Brandon - CA 0195-AU17-OCF BC H 1 10:24:44.40 1391.378 00:01:32 Yes
52 We Be She's - NV 17148-AU17-TBW BB H 1 10:24:45.40 1391.255 00:01:33 Yes
53 New Generation Loft - CA 1946-AU17-JALI BC H 1 10:24:46.00 1391.182 00:01:34 Yes
54 A V A Lofts - CA 28301-AU17-JEDD DC H 2 10:25:05.10 1388.852 00:01:53 Yes
55 Drama Queen Loft - TX 0377-AU17-GCI BBSP H 1 10:26:25.70 1379.106 00:03:13 Lost
56 Genesis Syndicate Loft - AZ 0446-AU17-SYNL BCSP H 5 10:26:29.10 1378.698 00:03:17 Yes
57 America\'s Dream Loft - IL 0224-AU17-ADL BB H 1 10:26:29.50 1378.650 00:03:17 Yes
58 Mesopotamia Loft - MN 0332-AU17-MESO BB H 2 10:26:30.10 1378.578 00:03:18 Yes
59 Aok Loft - NE 0979-AU17-OMA BB H 1 10:26:32.50 1378.290 00:03:20 Yes
60 Lamberton Loft - OK 0071-AU17-LAMB BB H 1 10:26:33.10 1378.218 00:03:21 Yes
61 Nemeth Family Loft - CA 9039-AU17-BON BB H 3 10:26:34.30 1378.074 00:03:22 Yes
62 Humberto Munoz - EM 65388-AU17-MEX BB H 3 10:26:35.00 1377.990 00:03:23 Yes
63 7-11 Syndicate - CA 0932-AU17-SD BBWF H 1 10:26:35.70 1377.907 00:03:23 Yes
64 Bill Dozier - TX 3715-AU17-TEX BB H 1 10:26:36.30 1377.835 00:03:24 Yes
65 Arrowhead Loft - CA 0004-AU17-AH BBWF H 2 10:26:36.80 1377.775 00:03:24 Yes
66 We Be She's - NV 17005-AU17-TBW BB H 2 10:26:38.20 1377.607 00:03:26 Yes
67 Rick Barker - CA 0001-AU17-VIP BB H 3 10:26:38.70 1377.547 00:03:26 Yes
68 Kolvenbag & Son - PA 1173-IF17-KOLV DC H 2 10:26:39.10 1377.499 00:03:27 Yes
69 Iv Aces Loft - CA 22001-AU17-JEDD BB H 1 10:26:40.20 1377.367 00:03:28 Yes
70 Los Banditos - CA 2457-AU17-LOSB DC H 2 10:26:40.40 1377.343 00:03:28 Yes
71 Four For More 2 - CA 1724-AU17-CVII BBWF H 1 10:26:41.10 1377.260 00:03:29 Yes
72 Nemelka Racing Pigeon Loft - UT 7094-AU17-NRPL de Belsar x Josephine BCWF H 1 10:26:42.20 1377.128 00:03:30 Yes
73 Milestone Loft - CA 0110-AU17-SD BB H 4 10:26:42.60 1377.080 00:03:30 Yes
74 Nanez Family Lofts - WI 4453-AU17-NANE BB H 1 10:26:43.00 1377.032 00:03:31 Yes
75 Mesopotamia Loft - MN 5312-AU17-VITA BB H 3 10:26:43.40 1376.984 00:03:31 Yes
76 U Cluj - NV 12007-AU17-JEDD BBPD H 2 10:26:44.20 1376.888 00:03:32 Yes
77 Genesis Syndicate Loft - AZ 0451-AU17-SYNL BC H 6 10:26:44.40 1376.865 00:03:32 Yes
78 Los Banditos - CA 0607-AU17-OAKS SLT H 3 10:26:45.00 1376.793 00:03:32 Yes
79 J & M Partridge Loft - CA 0564-AU17-PASO BB H 2 10:26:45.40 1376.745 00:03:33 Yes
80 Duane Gragg - CA 0753-AU17-KEYH BB H 2 10:26:46.00 1376.673 00:03:34 Yes
80 Turk Brand Syndicate - IA 1084-AU17-ER BB H 1 10:26:46.00 1376.673 00:03:34 Yes
82 Cn-Tou Loft - TN 0057-AU17-TOUL BB H 2 10:26:46.10 1376.661 00:03:34 Yes
83 America\'s Dream Loft - IL 0211-AU17-ADL DC H 2 10:26:46.60 1376.601 00:03:34 Yes
84 C P C A Syndicate - AZ 0918-AU17-PSC BB H 1 10:26:47.20 1376.529 00:03:35 Yes
85 3s Lofts - CA 0136-AU17-VIP DKSP H 1 10:26:47.70 1376.470 00:03:35 Yes
86 Duane Gragg - CA 0922-AU17-AUB BB H 3 10:26:48.90 1376.326 00:03:36 Yes
87 De La O -Lopez - CA 1541-AU17-TCH BB H 1 10:26:50.00 1376.195 00:03:37 Yes
88 Rick Barker - CA 0057-AU17-VIP BB H 4 10:26:56.90 1375.370 00:03:44 Yes
89 Carlton Kroese-Crazy Al - CO 5005-AU17-CRAZ DC H 1 10:27:05.40 1374.356 00:03:53 Lost
90 Sterchi & Bieche - CA 7301-AU17-BICH BB H 1 10:27:06.60 1374.213 00:03:54 Yes
91 Milestone Loft - CA 0129-AU17-SD BB H 5 10:27:08.60 1373.974 00:03:56 Yes
92 Milestone Loft - CA 0148-AU17-SD BB H 6 10:27:09.70 1373.843 00:03:57 Yes
93 Carlton Kroese-Crazy Al - CO 5034-AU17-CRAZ BC H 2 10:27:10.20 1373.784 00:03:58 Yes
94 7 Eleven Family Loft - CT 0838-IF17-NWC BB H 1 10:27:10.50 1373.748 00:03:58 Yes
95 Mcconnell Loft - FL 1807-AU17-GHC BBWF H 1 10:27:11.30 1373.653 00:03:59 Yes
96 Avelino Loft - CA 7049-AU17-HAN DKSP H 1 10:27:11.90 1373.581 00:03:59 Yes
96 Jedds Bird Suppies - CA 1312-AU17-JEDD BBWF H 1 10:27:11.90 1373.581 00:03:59 Yes
98 Nemeth Family Loft - CA 9061-AU17-BON BCPD H 4 10:27:13.70 1373.367 00:04:01 Yes
99 Gerald Antonio - CA 1806-AU17-SD BB H 1 10:27:14.00 1373.331 00:04:02 Yes
99 P N A Loft - CA 1733-AU17-PNA BC H 1 10:27:14.00 1373.331 00:04:02 Yes

There are 425 bird records

Note: These Race Results are unofficial and subject to change until verified by the Race Committee and declared final.